< < Back
Terminal Aerodrome Forecast


Current Version              Previous Versions:   1  2  3  4  5  6  7  8  9  

Terminal Aerodrome Forecast

058
FTUS42 KCAE 292324
TAFAGS
TAF
KAGS 292324Z 3000/3024 26004KT P6SM FEW070
     FM301400 26010KT P6SM SCT050=

Latest METAR

408
SAUS70 KWBC 292300 RRH
MTRAGS
METAR KAGS 292253Z 26008KT 10SM CLR 36/18 A2990 RMK AO2 SLP123
T03560183


USA.gov is the U.S. government's official web portal to all federal, state and local government web resources and services.